Terminal Aerodrome Forecast
Issued by NWS Louisville, KY

Home | Current Version | Previous Version | Text Only | Print | Product List | Glossary On
Versions: 1 2 3 4 5 6 7 8 9 10 11 12 13 14 15 16 17 18 19 20
000
FTUS43 KLMK 180500
TAFBWG
TAF
KBWG 180527Z 1806/1906 00000KT P6SM OVC110
     FM180900 VRB03KT 6SM -RASNPL SCT035 OVC050
     FM181500 VRB03KT P6SM VCSH SCT015 BKN025
     FM181800 34004KT P6SM OVC025=

USA.gov is the U.S. government's official web portal to all federal, state and local government web resources and services.